Quick Links (Output Below):   Max & Min Temps   /   Climate Reports   /   Zone Forecasts
River Forecasts   /   Forestry Forecasts   /   Aviation Forecasts   /   Radars   /   Features

Terminal Aerodrome Forecast (Mountain Home)

Pick a Site:
Arkadelphia | El Dorado | Fayetteville | Fort Smith | Harrison | Highfill | Hot Springs | Jonesboro
Little Rock | Monticello | Mountain Home | Pine Bluff | Texarkana
 Forecast 

KBPK 111120Z 1112/1212 03007KT P6SM SCT250
     FM112300 10005KT P6SM BKN250
     FM120300 VRB03KT P6SM SCT250=


 Latest METARs (Observations) 
How to Decode METARs
15Z KBPK 111453Z AUTO 06008KT 10SM CLR M02/M10 A3020 RMK AO2 SLP234
         T10221100 51037
         
14Z KBPK 111353Z AUTO 05006KT 10SM CLR M04/M10 A3019 RMK AO2 SLP229
         T10441100
         
13Z KBPK 111253Z AUTO 04006KT 10SM CLR M05/M10 A3013 RMK AO2 SLP211
         T10501100
         
12Z KBPK 111153Z AUTO 05004KT 10SM CLR M04/M10 A3009 RMK AO2 SLP195
         T10441100 11006 21044 53022
         
11Z KBPK 111053Z AUTO 06005KT 10SM CLR M04/M10 A3007 RMK AO2 SLP186
         T10391100
         
10Z KBPK 110953Z AUTO 06005KT 10SM CLR M04/M11 A3003 RMK AO2 SLP174
         T10391106
         
09Z KBPK 110853Z AUTO 06006KT 10SM CLR M03/M09 A3002 RMK AO2 SLP170
         T10331094 53005
         
08Z KBPK 110753Z AUTO 07007KT 10SM CLR M02/M09 A3001 RMK AO2 SLP167
         T10171089
         
07Z KBPK 110653Z AUTO 07008KT 10SM CLR M02/M07 A3001 RMK AO2 SLP167
         T10171072
         
06Z KBPK 110553Z AUTO 07006KT 10SM CLR M01/M07 A3001 RMK AO2 SLP167
         T10111072 10072 21011 400941056 56003
         
***** Today's Observations (Above) *****


Back to Main Page
http://www.srh.noaa.gov/lzk/qfcst.php

USA.gov is the U.S. government's official web portal to all federal, state and local government web resources and services.